Time;durP1;ratioP1;P1;durP2;ratioP2;P2;SDS_P1;SDS_P2;PMS_P1;PMS_P2;Temp;Humidity;BMP_temperature;BMP_pressure;BME280_temperature;BME280_humidity;BME280_pressure;Samples;Min_cycle;Max_cycle;Signal;HPM_P1;HPM_P2
2023/01/23 00:01:45;;;;;;;33.20;16.10;;;1.90;99.90;;;;;;5109052;28;20027;-63
2023/01/23 00:04:12;;;;;;;29.88;15.05;;;1.90;99.90;;;;;;5087650;28;20106;-63
2023/01/23 00:06:39;;;;;;;39.53;18.33;;;1.90;99.90;;;;;;5108440;28;20168;-63
2023/01/23 00:09:05;;;;;;;34.40;18.20;;;1.90;99.90;;;;;;5074996;28;20093;-63
2023/01/23 00:11:31;;;;;;;38.42;19.15;;;1.90;99.90;;;;;;5071884;28;20111;-63
2023/01/23 00:13:57;;;;;;;33.63;17.20;;;1.90;99.90;;;;;;5093615;28;20036;-63
2023/01/23 00:16:25;;;;;;;39.80;18.02;;;1.90;99.90;;;;;;5106583;28;20039;-63
2023/01/23 00:18:51;;;;;;;31.92;16.30;;;1.90;99.90;;;;;;5094218;28;20626;-63
2023/01/23 00:21:19;;;;;;;32.30;16.42;;;1.90;99.90;;;;;;5086766;28;20027;-63
2023/01/23 00:23:50;;;;;;;31.67;16.90;;;1.90;99.90;;;;;;5096063;28;20055;-63
2023/01/23 00:26:19;;;;;;;33.15;16.48;;;1.90;99.90;;;;;;5074757;28;20046;-63
2023/01/23 00:28:46;;;;;;;31.60;17.08;;;1.90;99.90;;;;;;5094102;28;20036;-63
2023/01/23 00:31:18;;;;;;;32.67;17.70;;;1.90;99.90;;;;;;5096815;28;20040;-63
2023/01/23 00:33:43;;;;;;;35.20;17.55;;;1.90;99.90;;;;;;5104424;28;20023;-63
2023/01/23 00:36:10;;;;;;;37.90;18.08;;;1.90;99.90;;;;;;5086817;28;20738;-63
2023/01/23 00:38:36;;;;;;;28.65;15.52;;;1.90;99.90;;;;;;5097020;28;20024;-63
2023/01/23 00:41:02;;;;;;;38.55;17.38;;;1.90;99.90;;;;;;5086358;28;20035;-63
2023/01/23 00:43:28;;;;;;;35.63;17.92;;;1.90;99.90;;;;;;5098026;28;20088;-63
2023/01/23 00:45:54;;;;;;;31.40;17.17;;;1.90;99.90;;;;;;5086237;28;20020;-63
2023/01/23 00:48:19;;;;;;;34.47;17.55;;;1.90;99.90;;;;;;5098751;28;20400;-63
2023/01/23 00:50:45;;;;;;;36.50;17.92;;;1.90;99.90;;;;;;5090007;28;20036;-63
2023/01/23 00:53:12;;;;;;;37.28;18.17;;;1.90;99.90;;;;;;5100188;28;20768;-63
2023/01/23 00:55:37;;;;;;;39.92;17.83;;;1.80;99.90;;;;;;5069581;28;20445;-63
2023/01/23 00:58:03;;;;;;;40.97;19.40;;;1.90;99.90;;;;;;5102313;28;20043;-63
2023/01/23 01:00:29;;;;;;;39.97;18.58;;;1.90;99.90;;;;;;5089961;28;20032;-63
2023/01/23 01:02:54;;;;;;;31.38;16.13;;;1.90;99.90;;;;;;5106160;28;20475;-63
2023/01/23 01:05:20;;;;;;;36.47;16.83;;;1.90;99.90;;;;;;5088279;28;20023;-63
2023/01/23 01:07:46;;;;;;;38.67;18.63;;;1.90;99.90;;;;;;5104174;28;20054;-63
2023/01/23 01:10:12;;;;;;;35.65;17.45;;;1.90;99.90;;;;;;5089417;28;20024;-63
2023/01/23 01:12:37;;;;;;;35.08;17.40;;;2.00;99.90;;;;;;5110277;28;20028;-62
2023/01/23 01:15:04;;;;;;;38.92;18.08;;;1.90;99.90;;;;;;5089906;28;20139;-63
2023/01/23 01:17:29;;;;;;;35.90;18.10;;;1.90;99.90;;;;;;5111053;28;20024;-63
2023/01/23 01:19:55;;;;;;;37.75;18.75;;;1.90;99.90;;;;;;5090431;28;20043;-63
2023/01/23 01:22:20;;;;;;;35.40;16.92;;;1.90;99.90;;;;;;5111041;28;20038;-63
2023/01/23 01:24:46;;;;;;;38.03;18.95;;;1.90;99.90;;;;;;5090262;28;20373;-63
2023/01/23 01:27:11;;;;;;;38.20;18.08;;;1.90;99.90;;;;;;5110945;28;20038;-63
2023/01/23 01:29:37;;;;;;;33.35;17.83;;;1.90;99.90;;;;;;5089048;28;20028;-63
2023/01/23 01:32:03;;;;;;;40.78;18.55;;;1.90;99.90;;;;;;5110831;28;20457;-63
2023/01/23 01:34:28;;;;;;;44.45;19.55;;;1.90;99.90;;;;;;5089972;27;20270;-63
2023/01/23 01:36:54;;;;;;;39.78;19.00;;;1.90;99.90;;;;;;5110834;28;20035;-63
2023/01/23 01:39:19;;;;;;;40.40;19.30;;;1.80;99.90;;;;;;5089978;28;20111;-63
2023/01/23 01:41:45;;;;;;;41.53;18.80;;;1.80;99.90;;;;;;5111202;28;20403;-62
2023/01/23 01:44:19;;;;;;;38.50;18.85;;;1.80;99.90;;;;;;5089794;28;20035;-62
2023/01/23 01:46:45;;;;;;;35.08;18.60;;;1.90;99.90;;;;;;5071022;28;20051;-63
2023/01/23 01:49:29;;;;;;;38.13;19.50;;;1.90;99.90;;;;;;5096325;28;20032;-63
2023/01/23 01:52:16;;;;;;;42.17;19.75;;;1.90;99.90;;;;;;5071081;28;20039;-63
2023/01/23 01:54:52;;;;;;;37.65;18.67;;;1.90;99.90;;;;;;5085517;28;20415;-63
2023/01/23 01:57:23;;;;;;;37.65;17.63;;;1.90;99.90;;;;;;5070906;28;20025;-63
2023/01/23 01:59:56;;;;;;;35.45;16.13;;;1.90;99.90;;;;;;5085800;28;20035;-63
2023/01/23 02:02:27;;;;;;;39.67;19.92;;;1.90;99.90;;;;;;5070706;28;20385;-63
2023/01/23 02:05:01;;;;;;;41.92;20.17;;;1.90;99.90;;;;;;5085366;28;20027;-63
2023/01/23 02:07:40;;;;;;;41.67;18.73;;;1.90;99.90;;;;;;5111014;28;20027;-63
2023/01/23 02:10:09;;;;;;;40.00;19.30;;;1.90;99.90;;;;;;5088350;28;20032;-63
2023/01/23 02:12:35;;;;;;;39.60;20.02;;;1.90;99.90;;;;;;5110822;28;20028;-63
2023/01/23 02:15:05;;;;;;;38.10;17.40;;;1.90;99.90;;;;;;5089071;28;20519;-63
2023/01/23 02:17:32;;;;;;;41.85;20.23;;;1.90;99.90;;;;;;5070374;28;20021;-63
2023/01/23 02:20:19;;;;;;;39.90;19.85;;;1.90;99.90;;;;;;5089387;28;20544;-63
2023/01/23 02:22:57;;;;;;;33.35;17.45;;;1.90;99.90;;;;;;5108337;28;20615;-63
2023/01/23 02:25:41;;;;;;;36.10;19.17;;;1.90;99.90;;;;;;5109551;28;20034;-63
2023/01/23 02:28:08;;;;;;;41.05;19.25;;;1.90;99.90;;;;;;5092088;28;20103;-63
2023/01/23 02:30:35;;;;;;;37.25;20.20;;;1.90;99.90;;;;;;5104323;28;20070;-63
2023/01/23 02:33:18;;;;;;;37.80;18.05;;;1.90;99.90;;;;;;5089431;28;20020;-62
2023/01/23 02:35:44;;;;;;;39.03;19.83;;;1.80;99.90;;;;;;5110537;28;20026;-63
2023/01/23 02:38:11;;;;;;;36.88;16.67;;;1.90;99.90;;;;;;5092594;28;20032;-63
2023/01/23 02:40:39;;;;;;;29.33;16.23;;;1.90;99.90;;;;;;5110551;28;20035;-62
2023/01/23 02:43:08;;;;;;;32.97;17.63;;;1.90;99.90;;;;;;5091078;28;20474;-63
2023/01/23 02:45:34;;;;;;;33.58;18.65;;;1.90;99.90;;;;;;5110404;28;20020;-63
2023/01/23 02:48:00;;;;;;;40.40;19.20;;;1.90;99.90;;;;;;5090633;28;20039;-62
2023/01/23 02:50:27;;;;;;;38.25;18.83;;;1.90;99.90;;;;;;5110189;28;20684;-62
2023/01/23 02:52:53;;;;;;;35.65;19.25;;;1.90;99.90;;;;;;5089723;28;20490;-62
2023/01/23 02:55:20;;;;;;;37.25;19.38;;;1.90;99.90;;;;;;5110086;28;20024;-62
2023/01/23 02:57:45;;;;;;;36.50;18.17;;;1.80;99.90;;;;;;5087042;28;20393;-62
2023/01/23 03:00:15;;;;;;;33.75;17.30;;;1.90;99.90;;;;;;5110280;28;20034;-62
2023/01/23 03:02:41;;;;;;;41.00;19.98;;;1.90;99.90;;;;;;5089587;28;20078;-63
2023/01/23 03:05:07;;;;;;;42.25;20.77;;;1.80;99.90;;;;;;5098091;28;20032;-63
2023/01/23 03:07:32;;;;;;;34.78;18.77;;;1.80;99.90;;;;;;5089705;28;20388;-63
2023/01/23 03:09:57;;;;;;;38.95;20.17;;;1.80;99.90;;;;;;5086136;28;20028;-63
2023/01/23 03:12:23;;;;;;;39.13;18.30;;;1.80;99.90;;;;;;5109226;28;20123;-63
2023/01/23 03:14:53;;;;;;;37.70;17.02;;;1.80;99.90;;;;;;5088527;28;20031;-75
2023/01/23 03:17:18;;;;;;;35.03;17.27;;;1.90;99.90;;;;;;5110091;28;20023;-75
2023/01/23 03:19:44;;;;;;;37.38;19.10;;;1.90;99.90;;;;;;5088731;28;20039;-75
2023/01/23 03:22:09;;;;;;;38.67;19.60;;;1.90;99.90;;;;;;5109173;28;20028;-75
2023/01/23 03:24:34;;;;;;;36.97;19.98;;;1.80;99.90;;;;;;5088642;28;20060;-75
2023/01/23 03:27:00;;;;;;;38.00;18.08;;;1.90;99.90;;;;;;5109108;28;20028;-75
2023/01/23 03:32:12;;;;;;;36.33;18.70;;;1.90;99.90;;;;;;5069460;28;20087;-76
2023/01/23 03:34:38;;;;;;;34.78;17.73;;;1.90;99.90;;;;;;5091663;28;20046;-75
2023/01/23 03:37:04;;;;;;;33.00;17.60;;;1.90;99.90;;;;;;5109019;28;20039;-60
2023/01/23 03:42:13;;;;;;;37.33;18.00;;;1.90;99.90;;;;;;5069417;28;20031;-75
2023/01/23 03:44:39;;;;;;;36.90;18.70;;;1.90;99.90;;;;;;5090850;28;20107;-76
2023/01/23 03:47:05;;;;;;;37.17;18.70;;;1.90;99.90;;;;;;5108958;28;20725;-76
2023/01/23 03:49:31;;;;;;;34.42;17.77;;;1.90;99.90;;;;;;5088199;28;20028;-77
2023/01/23 03:51:57;;;;;;;34.70;18.42;;;1.90;99.90;;;;;;5109167;28;20565;-75
2023/01/23 03:54:22;;;;;;;31.38;17.35;;;1.90;99.90;;;;;;5088030;28;20059;-74
2023/01/23 03:56:48;;;;;;;36.90;19.58;;;1.90;99.90;;;;;;5108763;28;20023;-75
2023/01/23 03:59:13;;;;;;;36.22;17.98;;;1.90;99.90;;;;;;5088143;28;20085;-75
2023/01/23 04:01:39;;;;;;;35.88;17.55;;;1.90;99.90;;;;;;5108941;28;20041;-75
2023/01/23 04:04:04;;;;;;;34.72;17.38;;;1.90;99.90;;;;;;5088009;28;20047;-76
2023/01/23 04:06:30;;;;;;;40.78;20.13;;;1.90;99.90;;;;;;5102395;28;20041;-75
2023/01/23 04:08:57;;;;;;;38.63;20.30;;;1.90;99.90;;;;;;5097991;28;20036;-76
2023/01/23 04:11:23;;;;;;;38.28;18.45;;;1.80;99.90;;;;;;5089539;28;20519;-75
2023/01/23 04:13:49;;;;;;;35.40;18.25;;;1.80;99.90;;;;;;5107067;28;20079;-75
2023/01/23 04:16:14;;;;;;;36.50;19.52;;;1.90;99.90;;;;;;5089793;28;20032;-75
2023/01/23 04:18:40;;;;;;;37.22;19.20;;;1.90;99.90;;;;;;5107097;28;20106;-75
2023/01/23 04:21:05;;;;;;;41.10;19.05;;;1.90;99.90;;;;;;5090521;28;20028;-76
2023/01/23 04:23:31;;;;;;;35.47;18.67;;;1.90;99.90;;;;;;5111263;28;20035;-75
2023/01/23 04:25:57;;;;;;;35.80;19.30;;;1.90;99.90;;;;;;5113476;28;20023;-75
2023/01/23 04:28:23;;;;;;;37.78;18.98;;;1.90;99.90;;;;;;5097067;28;20123;-75
2023/01/23 04:30:50;;;;;;;36.42;17.77;;;1.80;99.90;;;;;;5104814;28;20097;-75
2023/01/23 04:33:16;;;;;;;35.30;17.67;;;1.90;99.90;;;;;;5110741;28;20504;-75
2023/01/23 04:35:56;;;;;;;33.15;17.70;;;1.90;99.90;;;;;;5113499;28;20046;-75
2023/01/23 04:38:23;;;;;;;34.45;16.98;;;1.90;99.90;;;;;;5081216;28;20028;-74
2023/01/23 04:40:50;;;;;;;39.50;20.42;;;1.90;99.90;;;;;;5113259;28;20019;-74
2023/01/23 04:43:15;;;;;;;39.13;20.10;;;1.90;99.90;;;;;;5093972;28;20114;-74
2023/01/23 04:45:42;;;;;;;40.13;20.88;;;1.90;99.90;;;;;;5113035;28;20024;-74
2023/01/23 04:48:08;;;;;;;43.63;21.45;;;1.80;99.90;;;;;;5094352;28;20103;-74
2023/01/23 04:50:34;;;;;;;39.38;19.40;;;1.80;99.90;;;;;;5112661;28;20127;-75
2023/01/23 04:53:00;;;;;;;36.53;18.88;;;1.80;99.90;;;;;;5093252;27;20565;-74
2023/01/23 04:55:27;;;;;;;38.47;16.92;;;1.90;99.90;;;;;;5112615;27;20020;-75
2023/01/23 04:57:53;;;;;;;32.58;16.58;;;1.90;99.90;;;;;;5091871;28;20028;-74
2023/01/23 05:00:20;;;;;;;32.58;17.48;;;1.90;99.90;;;;;;5110714;28;20035;-75
2023/01/23 05:02:46;;;;;;;37.63;19.20;;;2.00;99.90;;;;;;5113070;28;20068;-74
2023/01/23 05:05:11;;;;;;;34.10;17.85;;;1.90;99.90;;;;;;5093099;28;20119;-74
2023/01/23 05:07:37;;;;;;;36.25;16.48;;;1.90;99.90;;;;;;5083377;28;20094;-74
2023/01/23 05:10:04;;;;;;;34.58;19.05;;;1.90;99.90;;;;;;5111859;28;20432;-75
2023/01/23 05:12:30;;;;;;;33.47;18.08;;;2.00;99.90;;;;;;5095389;28;20110;-74
2023/01/23 05:14:55;;;;;;;36.88;19.63;;;1.90;99.90;;;;;;5113117;28;20107;-75
2023/01/23 05:17:21;;;;;;;37.15;20.00;;;1.90;99.90;;;;;;5095222;28;20031;-75
2023/01/23 05:19:46;;;;;;;35.70;19.10;;;1.90;99.90;;;;;;5112500;28;20024;-74
2023/01/23 05:22:12;;;;;;;37.85;19.25;;;1.80;99.90;;;;;;5094342;28;20027;-74
2023/01/23 05:24:37;;;;;;;33.85;17.33;;;1.80;99.90;;;;;;5112335;28;20032;-73
2023/01/23 05:27:03;;;;;;;37.63;19.75;;;1.80;99.90;;;;;;5092595;28;20146;-73
2023/01/23 05:29:28;;;;;;;35.13;17.52;;;1.80;99.90;;;;;;5112273;28;20030;-75
2023/01/23 05:31:54;;;;;;;30.63;16.08;;;1.80;99.90;;;;;;5090873;28;20051;-74
2023/01/23 05:34:19;;;;;;;33.03;18.15;;;1.90;99.90;;;;;;5111518;28;20501;-74
2023/01/23 05:36:46;;;;;;;37.60;19.33;;;1.90;99.90;;;;;;5091997;28;20055;-74
2023/01/23 05:39:11;;;;;;;35.00;18.75;;;1.90;99.90;;;;;;5110034;28;20491;-74
2023/01/23 05:41:37;;;;;;;34.78;18.33;;;1.90;99.90;;;;;;5091731;28;20481;-74
2023/01/23 05:44:02;;;;;;;37.47;18.95;;;1.80;99.90;;;;;;5090649;28;20086;-74
2023/01/23 05:46:28;;;;;;;38.03;19.80;;;1.80;99.90;;;;;;5111016;28;20035;-73
2023/01/23 05:48:53;;;;;;;39.63;19.85;;;1.80;99.90;;;;;;5090213;28;20446;-74
2023/01/23 05:51:19;;;;;;;36.33;17.80;;;1.80;99.90;;;;;;5111037;28;20028;-74
2023/01/23 05:53:44;;;;;;;37.35;21.13;;;1.70;99.90;;;;;;5089902;28;20056;-74
2023/01/23 05:56:10;;;;;;;38.22;19.35;;;1.70;99.90;;;;;;5110939;28;20031;-74
2023/01/23 05:58:35;;;;;;;37.92;19.48;;;1.70;99.90;;;;;;5086509;28;20487;-74
2023/01/23 06:01:02;;;;;;;34.40;16.83;;;1.70;99.90;;;;;;5110084;28;20085;-74
2023/01/23 06:03:28;;;;;;;32.95;17.15;;;1.70;99.90;;;;;;5089842;28;20028;-75
2023/01/23 06:05:53;;;;;;;40.08;19.35;;;1.70;99.90;;;;;;5107040;28;20034;-75
2023/01/23 06:08:19;;;;;;;37.88;19.95;;;1.80;99.90;;;;;;5090044;28;20055;-75
2023/01/23 06:10:44;;;;;;;39.90;20.83;;;1.70;99.90;;;;;;5109270;28;20050;-74
2023/01/23 06:13:10;;;;;;;38.92;19.73;;;1.70;99.90;;;;;;5089670;28;20032;-74
2023/01/23 06:15:36;;;;;;;37.22;19.55;;;1.70;99.90;;;;;;5110575;28;20495;-74
2023/01/23 06:18:01;;;;;;;37.42;18.95;;;1.70;99.90;;;;;;5090017;28;20032;-75
2023/01/23 06:20:27;;;;;;;36.95;17.73;;;1.70;99.90;;;;;;5110358;28;20392;-73
2023/01/23 06:22:52;;;;;;;36.75;18.45;;;1.70;99.90;;;;;;5094065;28;20035;-75
2023/01/23 06:25:19;;;;;;;34.75;18.33;;;1.70;99.90;;;;;;5110875;28;20422;-74
2023/01/23 06:27:45;;;;;;;36.78;18.50;;;1.70;99.90;;;;;;5094575;28;20027;-75
2023/01/23 06:30:11;;;;;;;38.00;18.95;;;1.70;99.90;;;;;;5107815;28;20048;-75
2023/01/23 06:32:36;;;;;;;35.00;18.38;;;1.70;99.90;;;;;;5092893;28;20035;-73
2023/01/23 06:35:02;;;;;;;38.20;20.13;;;1.70;99.90;;;;;;5098469;28;20028;-71
2023/01/23 06:37:28;;;;;;;44.85;22.23;;;1.70;99.90;;;;;;5088051;28;20519;-74
2023/01/23 06:39:53;;;;;;;39.47;20.25;;;1.70;99.90;;;;;;5092453;28;20051;-72
2023/01/23 06:42:19;;;;;;;41.20;20.60;;;1.70;99.90;;;;;;5109620;28;20039;-72
2023/01/23 06:44:44;;;;;;;40.83;21.98;;;1.70;99.90;;;;;;5092903;28;20430;-72
2023/01/23 06:47:10;;;;;;;41.22;20.85;;;1.70;99.90;;;;;;5109003;28;20432;-71
2023/01/23 06:49:35;;;;;;;40.58;19.80;;;1.70;99.90;;;;;;5091754;28;20451;-73
2023/01/23 06:52:01;;;;;;;37.63;19.85;;;1.70;99.90;;;;;;5109225;28;20057;-74
2023/01/23 06:54:26;;;;;;;41.90;21.55;;;1.70;99.90;;;;;;5090487;28;20116;-72
2023/01/23 06:56:52;;;;;;;43.42;21.02;;;1.70;99.90;;;;;;5109045;28;20027;-74
2023/01/23 06:59:17;;;;;;;34.50;19.20;;;1.70;99.90;;;;;;5087680;28;20031;-74
2023/01/23 07:01:43;;;;;;;40.00;20.33;;;1.70;99.90;;;;;;5109030;28;20016;-73
2023/01/23 07:04:08;;;;;;;42.20;19.60;;;1.70;99.90;;;;;;5105860;28;20100;-74
2023/01/23 07:06:34;;;;;;;38.95;20.52;;;1.70;99.90;;;;;;5105449;28;20035;-61
2023/01/23 07:08:59;;;;;;;40.17;20.55;;;1.70;99.90;;;;;;5087513;28;20081;-61
2023/01/23 07:11:25;;;;;;;36.15;19.17;;;1.70;99.90;;;;;;5108216;28;20127;-61
2023/01/23 07:13:51;;;;;;;40.83;20.60;;;1.70;99.90;;;;;;5087074;28;20111;-62
2023/01/23 07:16:16;;;;;;;40.92;21.20;;;1.70;99.90;;;;;;5108253;28;20479;-60
2023/01/23 07:18:42;;;;;;;44.95;22.50;;;1.60;99.90;;;;;;5087347;28;20032;-58
2023/01/23 07:21:07;;;;;;;38.88;19.40;;;1.60;99.90;;;;;;5108228;28;20059;-58
2023/01/23 07:23:33;;;;;;;38.22;20.95;;;1.70;99.90;;;;;;5087270;28;20031;-60
2023/01/23 07:26:00;;;;;;;40.83;20.73;;;1.70;99.90;;;;;;5107478;28;20032;-59
2023/01/23 07:28:26;;;;;;;40.85;20.15;;;1.70;99.90;;;;;;5087110;28;20024;-58
2023/01/23 07:30:52;;;;;;;38.78;20.67;;;1.70;99.90;;;;;;5099198;28;20831;-60
2023/01/23 07:33:17;;;;;;;40.15;19.92;;;1.70;99.90;;;;;;5093403;28;20027;-60
2023/01/23 07:35:42;;;;;;;44.10;20.38;;;1.70;99.90;;;;;;5107752;28;20058;-60
2023/01/23 07:38:09;;;;;;;35.72;18.55;;;1.70;99.90;;;;;;5086877;28;20030;-60
2023/01/23 07:40:37;;;;;;;41.60;20.50;;;1.80;99.90;;;;;;5108052;28;20081;-60
2023/01/23 07:43:03;;;;;;;37.13;18.83;;;1.80;99.90;;;;;;5097165;28;20019;-60
2023/01/23 07:45:29;;;;;;;32.60;17.27;;;1.80;99.90;;;;;;5090431;28;20543;-59
2023/01/23 07:47:54;;;;;;;36.20;18.75;;;1.80;99.90;;;;;;5086845;28;20042;-59
2023/01/23 07:50:20;;;;;;;38.60;19.20;;;1.80;99.90;;;;;;5086887;28;20042;-59
2023/01/23 07:52:45;;;;;;;37.78;19.38;;;1.80;99.90;;;;;;5089125;28;20447;-56
2023/01/23 07:55:11;;;;;;;38.30;19.55;;;1.80;99.90;;;;;;5107515;28;20569;-60
2023/01/23 07:57:36;;;;;;;33.05;18.92;;;1.80;99.90;;;;;;5087245;28;20031;-58
2023/01/23 08:00:03;;;;;;;39.03;20.30;;;1.80;99.90;;;;;;5089180;28;20032;-59
2023/01/23 08:02:28;;;;;;;35.72;19.38;;;1.80;99.90;;;;;;5107192;28;20023;-58
2023/01/23 08:04:54;;;;;;;34.65;17.13;;;1.80;99.90;;;;;;5101184;28;20031;-59
2023/01/23 08:07:19;;;;;;;37.08;20.55;;;1.90;99.90;;;;;;5087271;28;20024;-60
2023/01/23 08:09:45;;;;;;;35.92;19.60;;;1.90;99.90;;;;;;5089126;28;20066;-59
2023/01/23 08:12:11;;;;;;;36.22;18.67;;;1.80;99.90;;;;;;5106597;28;20369;-59
2023/01/23 08:14:36;;;;;;;30.92;17.05;;;1.80;99.90;;;;;;5109601;28;20027;-60
2023/01/23 08:17:02;;;;;;;33.03;17.77;;;1.90;99.90;;;;;;5087565;28;20028;-59
2023/01/23 08:19:27;;;;;;;34.80;18.65;;;1.90;99.90;;;;;;5089154;28;20031;-60
2023/01/23 08:21:53;;;;;;;37.50;20.25;;;1.90;99.90;;;;;;5106428;28;20032;-59
2023/01/23 08:24:19;;;;;;;35.60;17.77;;;1.90;99.90;;;;;;5109421;28;20387;-59
2023/01/23 08:26:44;;;;;;;33.45;17.70;;;1.90;99.90;;;;;;5089475;28;20036;-58
2023/01/23 08:29:10;;;;;;;32.72;16.70;;;1.90;99.90;;;;;;5086886;28;20035;-61
2023/01/23 08:31:36;;;;;;;30.15;15.75;;;1.90;99.90;;;;;;5108334;28;20568;-59
2023/01/23 08:34:02;;;;;;;33.72;16.15;;;2.00;99.90;;;;;;5087542;28;20420;-59
2023/01/23 08:36:28;;;;;;;29.55;16.85;;;2.00;99.90;;;;;;5108413;28;20142;-59
2023/01/23 08:38:54;;;;;;;30.83;18.23;;;2.10;99.90;;;;;;5087525;28;20039;-59
2023/01/23 08:41:20;;;;;;;29.75;16.25;;;2.10;99.90;;;;;;5108562;28;20024;-60
2023/01/23 08:43:46;;;;;;;34.95;19.70;;;2.10;99.90;;;;;;5087475;28;20385;-59
2023/01/23 08:46:11;;;;;;;38.88;18.60;;;2.10;99.90;;;;;;5107061;28;20051;-60
2023/01/23 08:48:37;;;;;;;38.08;18.70;;;2.00;99.90;;;;;;5087458;28;20017;-59
2023/01/23 08:51:09;;;;;;;33.28;15.68;;;2.00;99.90;;;;;;5108247;28;20088;-60
2023/01/23 08:53:34;;;;;;;32.28;16.35;;;2.10;99.90;;;;;;5086954;28;20059;-59
2023/01/23 08:56:02;;;;;;;30.25;15.95;;;2.20;99.90;;;;;;5108308;28;20058;-60
2023/01/23 08:58:28;;;;;;;30.80;17.25;;;2.20;99.90;;;;;;5087137;28;20496;-58
2023/01/23 09:00:54;;;;;;;30.02;16.55;;;2.20;99.90;;;;;;5108278;28;20065;-58
2023/01/23 09:03:19;;;;;;;31.50;17.33;;;2.10;99.90;;;;;;5087310;28;20099;-59
2023/01/23 09:05:45;;;;;;;29.42;16.90;;;2.10;99.90;;;;;;5104725;28;20044;-59
2023/01/23 09:08:10;;;;;;;34.70;18.30;;;2.10;99.90;;;;;;5087947;28;20031;-60
2023/01/23 09:10:36;;;;;;;30.65;16.92;;;2.10;99.90;;;;;;5111662;28;20040;-58
2023/01/23 09:13:02;;;;;;;29.77;15.85;;;2.20;99.90;;;;;;5090745;28;20368;-59
2023/01/23 09:15:27;;;;;;;28.38;16.23;;;2.30;99.90;;;;;;5111850;28;20042;-59
2023/01/23 09:17:53;;;;;;;29.48;16.38;;;2.20;99.90;;;;;;5100135;28;20511;-58
2023/01/23 09:20:18;;;;;;;32.83;17.77;;;2.20;99.90;;;;;;5092551;28;20039;-60
2023/01/23 09:22:44;;;;;;;30.17;17.55;;;2.20;99.90;;;;;;5109671;28;20049;-59
2023/01/23 09:25:10;;;;;;;31.23;15.93;;;2.20;99.90;;;;;;5092335;28;20032;-59
2023/01/23 09:27:35;;;;;;;28.42;15.48;;;2.20;99.90;;;;;;5102620;28;20032;-58
2023/01/23 09:30:01;;;;;;;30.00;15.68;;;2.20;99.90;;;;;;5092818;28;20031;-59
2023/01/23 09:32:26;;;;;;;30.65;16.75;;;2.20;99.90;;;;;;5104357;28;20043;-58
2023/01/23 09:34:53;;;;;;;26.92;16.08;;;2.20;99.90;;;;;;5091672;28;20028;-59
2023/01/23 09:37:19;;;;;;;31.38;17.98;;;2.20;99.90;;;;;;5104668;28;20061;-59
2023/01/23 09:39:45;;;;;;;29.98;16.50;;;2.20;99.90;;;;;;5091822;28;20093;-63
2023/01/23 09:42:20;;;;;;;29.40;16.17;;;2.20;99.90;;;;;;5105815;28;20021;-63
2023/01/23 09:44:56;;;;;;;27.80;16.27;;;2.20;99.90;;;;;;5091632;28;20027;-72
2023/01/23 09:47:37;;;;;;;29.35;16.77;;;2.20;99.90;;;;;;5074748;28;20027;-72
2023/01/23 09:50:13;;;;;;;37.47;18.35;;;2.20;99.90;;;;;;5091768;28;20108;-73
2023/01/23 09:52:53;;;;;;;33.33;16.83;;;2.30;99.90;;;;;;5076974;28;20091;-73
2023/01/23 09:55:39;;;;;;;28.35;16.45;;;2.20;99.90;;;;;;5091494;28;20084;-73
2023/01/23 09:58:10;;;;;;;32.40;16.17;;;2.30;99.90;;;;;;5091610;28;20024;-73
2023/01/23 10:00:35;;;;;;;30.73;17.08;;;2.30;99.90;;;;;;5071401;28;20055;-73
2023/01/23 10:03:09;;;;;;;30.52;16.33;;;2.30;99.90;;;;;;5097630;28;20541;-73
2023/01/23 10:05:53;;;;;;;29.13;16.63;;;2.30;99.90;;;;;;5088313;28;20035;-73
2023/01/23 10:08:42;;;;;;;27.27;16.25;;;2.30;99.90;;;;;;5082287;28;20437;-73
2023/01/23 10:11:23;;;;;;;27.67;16.30;;;2.20;99.90;;;;;;5070899;28;20035;-73
2023/01/23 10:14:10;;;;;;;31.55;16.80;;;2.20;99.90;;;;;;5086325;28;20020;-72
2023/01/23 10:16:57;;;;;;;27.63;15.98;;;2.30;99.90;;;;;;5071024;28;20058;-72
2023/01/23 10:19:59;;;;;;;27.80;14.18;;;2.30;99.90;;;;;;5070416;28;20066;-73
2023/01/23 10:22:40;;;;;;;28.95;14.20;;;2.40;99.90;;;;;;5074539;28;20380;-74
2023/01/23 10:25:20;;;;;;;25.90;14.52;;;2.50;99.90;;;;;;5090842;28;20061;-73
2023/01/23 10:27:48;;;;;;;27.95;16.85;;;2.50;99.90;;;;;;5077279;28;20504;-72
2023/01/23 10:30:27;;;;;;;29.92;15.80;;;2.40;99.90;;;;;;5107366;28;20450;-72
2023/01/23 10:32:58;;;;;;;28.35;15.07;;;2.50;99.90;;;;;;5088776;28;20040;-72
2023/01/23 10:35:35;;;;;;;28.38;16.00;;;2.50;99.90;;;;;;5110772;28;20227;-72
2023/01/23 10:38:11;;;;;;;30.17;16.45;;;2.40;99.90;;;;;;5079100;28;20028;-73
2023/01/23 10:43:21;;;;;;;29.17;16.55;;;2.30;99.90;;;;;;5095457;28;20039;-72
2023/01/23 10:45:48;;;;;;;28.33;15.40;;;2.30;99.90;;;;;;5090968;28;20024;-72
2023/01/23 10:48:46;;;;;;;28.77;16.08;;;2.30;99.90;;;;;;5094748;28;20160;-73
2023/01/23 10:51:27;;;;;;;24.35;15.38;;;2.30;99.90;;;;;;5070158;28;20063;-73
2023/01/23 10:54:00;;;;;;;31.08;15.88;;;2.30;99.90;;;;;;5089556;28;20063;-73
2023/01/23 10:56:26;;;;;;;30.48;15.60;;;2.40;99.90;;;;;;5110246;28;20024;-72
2023/01/23 10:58:55;;;;;;;26.48;14.95;;;2.40;99.90;;;;;;5087630;28;20115;-72
2023/01/23 11:01:30;;;;;;;31.35;15.30;;;2.40;99.90;;;;;;5110220;28;20037;-73
2023/01/23 11:03:56;;;;;;;21.13;10.73;;;2.50;99.90;;;;;;5088334;28;20089;-73
2023/01/23 11:06:24;;;;;;;28.35;14.65;;;2.40;99.90;;;;;;5102840;28;20032;-72
2023/01/23 11:08:59;;;;;;;26.50;14.27;;;2.50;99.90;;;;;;5088318;28;20044;-72
2023/01/23 11:11:27;;;;;;;23.38;14.65;;;2.60;99.90;;;;;;5069861;28;20086;-72
2023/01/23 11:14:12;;;;;;;26.05;13.13;;;2.60;99.90;;;;;;5090095;28;20073;-72
2023/01/23 11:16:38;;;;;;;23.13;14.30;;;2.60;99.90;;;;;;5069761;28;20081;-72
2023/01/23 11:19:07;;;;;;;27.48;16.38;;;2.60;99.90;;;;;;5086386;28;20028;-71
2023/01/23 11:21:34;;;;;;;29.45;16.63;;;2.50;99.90;;;;;;5109453;28;20434;-71
2023/01/23 11:24:19;;;;;;;25.95;14.38;;;2.50;99.90;;;;;;5086966;28;20467;-71
2023/01/23 11:26:46;;;;;;;22.05;11.93;;;2.40;99.90;;;;;;5106534;28;20077;-71
2023/01/23 11:29:24;;;;;;;26.67;14.38;;;2.40;99.90;;;;;;5089748;28;20040;-71
2023/01/23 11:32:11;;;;;;;24.30;14.63;;;2.40;99.90;;;;;;5106106;28;20085;-71
2023/01/23 11:34:41;;;;;;;26.90;14.65;;;2.50;99.90;;;;;;5089663;28;20531;-71
2023/01/23 11:37:24;;;;;;;28.15;14.65;;;2.60;99.90;;;;;;5070311;28;20565;-71
2023/01/23 11:40:01;;;;;;;26.08;15.77;;;2.60;99.90;;;;;;5089406;28;20024;-71
2023/01/23 11:42:27;;;;;;;25.80;15.05;;;2.60;99.90;;;;;;5073327;28;20039;-71
2023/01/23 11:44:54;;;;;;;26.33;14.52;;;2.60;99.90;;;;;;5089515;28;20024;-71
2023/01/23 11:47:49;;;;;;;25.80;13.77;;;2.70;99.90;;;;;;5102485;28;20567;-71
2023/01/23 11:50:20;;;;;;;24.40;14.65;;;2.70;99.90;;;;;;5089443;28;20042;-70
2023/01/23 11:53:35;;;;;;;25.42;13.75;;;2.80;99.90;;;;;;5075909;28;20046;-68
2023/01/23 11:56:39;;;;;;;26.13;15.10;;;2.80;99.90;;;;;;5040960;28;20040;-71
2023/01/23 11:59:21;;;;;;;30.80;16.40;;;2.70;99.90;;;;;;5086699;28;20067;-70
2023/01/23 12:02:20;;;;;;;23.88;14.40;;;2.60;99.90;;;;;;5067452;28;20054;-70
2023/01/23 12:05:11;;;;;;;29.20;14.85;;;2.60;99.90;;;;;;5088689;28;20102;-70
2023/01/23 12:08:05;;;;;;;26.83;14.13;;;2.60;99.90;;;;;;5100417;28;20020;-70
2023/01/23 12:10:49;;;;;;;24.75;14.60;;;2.60;99.90;;;;;;5108548;28;20035;-71
2023/01/23 12:13:31;;;;;;;25.67;14.13;;;2.70;99.90;;;;;;5079496;28;20020;-70
2023/01/23 12:16:07;;;;;;;28.23;15.90;;;2.80;99.90;;;;;;5068955;28;20492;-71
2023/01/23 12:18:50;;;;;;;31.08;15.60;;;2.70;99.90;;;;;;5082526;28;20033;-70
2023/01/23 12:21:32;;;;;;;25.83;14.23;;;2.70;99.90;;;;;;5068975;28;20033;-70
2023/01/23 12:24:14;;;;;;;28.00;15.15;;;2.80;99.90;;;;;;5085387;28;20446;-71
2023/01/23 12:27:11;;;;;;;27.88;15.48;;;2.90;99.90;;;;;;5068946;28;20110;-72
2023/01/23 12:30:14;;;;;;;29.75;15.80;;;3.00;99.90;;;;;;5058668;28;20040;-71
2023/01/23 12:32:49;;;;;;;37.53;17.10;;;3.00;99.90;;;;;;5074267;28;20032;-71
2023/01/23 12:35:26;;;;;;;30.52;17.73;;;3.10;99.90;;;;;;5089029;28;20028;-71
2023/01/23 12:38:23;;;;;;;29.05;15.25;;;3.10;99.90;;;;;;5076136;28;20036;-72
2023/01/23 12:41:04;;;;;;;;;;;3.20;99.90;;;;;;5069187;28;20047;-72
2023/01/23 12:43:39;;;;;;;29.27;15.07;;;3.10;99.90;;;;;;5084250;28;19981;-71
2023/01/23 12:46:12;;;;;;;50.28;22.33;;;3.10;99.90;;;;;;5071160;28;20032;-70
2023/01/23 12:48:45;;;;;;;31.40;16.75;;;3.10;99.90;;;;;;5086399;28;20481;-71
2023/01/23 12:51:24;;;;;;;24.55;13.48;;;3.10;99.90;;;;;;5072366;28;20107;-71
2023/01/23 12:53:55;;;;;;;24.23;13.07;;;3.00;99.90;;;;;;5087937;28;20732;-70
2023/01/23 12:56:29;;;;;;;23.17;14.60;;;2.90;99.90;;;;;;5072335;28;20036;-71
2023/01/23 12:59:18;;;;;;;23.08;13.07;;;2.90;99.90;;;;;;5088548;28;20530;-71